createdAt,value
2017-11-14T00:01:59.991Z,1.56
2017-11-14T00:04:27.516Z,1.63
2017-11-14T00:06:55.028Z,1.65
2017-11-14T00:09:22.695Z,1.71
2017-11-14T00:11:50.228Z,1.71
2017-11-14T00:14:17.739Z,1.78
2017-11-14T00:16:45.326Z,1.75
2017-11-14T00:19:12.857Z,1.83
2017-11-14T00:21:40.889Z,1.75
2017-11-14T00:24:08.410Z,1.83
2017-11-14T00:26:35.925Z,1.83
2017-11-14T00:29:03.503Z,1.83
2017-11-14T00:31:31.018Z,2.01
2017-11-14T00:33:58.542Z,1.84
2017-11-14T00:36:26.529Z,1.79
2017-11-14T00:38:54.046Z,1.77
2017-11-14T00:41:21.567Z,1.67
2017-11-14T00:43:49.114Z,1.76
2017-11-14T00:46:16.779Z,1.65
2017-11-14T00:48:44.317Z,1.74
2017-11-14T00:51:11.842Z,1.82
2017-11-14T00:53:39.392Z,1.74
2017-11-14T00:56:06.918Z,1.70
2017-11-14T00:58:34.463Z,1.70
2017-11-14T01:01:01.991Z,1.65
2017-11-14T01:03:29.650Z,1.62
2017-11-14T01:05:57.178Z,1.55
2017-11-14T01:08:24.704Z,1.36
2017-11-14T01:10:52.408Z,1.12
2017-11-14T01:13:19.941Z,1.22
2017-11-14T01:15:47.473Z,1.17
2017-11-14T01:18:15.380Z,1.36
2017-11-14T01:20:42.902Z,1.51
2017-11-14T01:23:10.429Z,1.50
2017-11-14T01:25:37.976Z,1.43
2017-11-14T01:28:05.494Z,1.38
2017-11-14T01:30:33.368Z,1.53
2017-11-14T01:33:00.902Z,1.46
2017-11-14T01:35:28.408Z,1.38
2017-11-14T01:37:56.059Z,1.48
2017-11-14T01:40:23.583Z,1.57
2017-11-14T01:42:51.106Z,1.60
2017-11-14T01:45:18.657Z,1.64
2017-11-14T01:47:46.202Z,1.67
2017-11-14T01:50:13.853Z,1.72
2017-11-14T01:52:41.382Z,1.74
2017-11-14T01:55:08.916Z,1.87
2017-11-14T01:57:36.575Z,1.86
2017-11-14T02:00:04.109Z,1.98
2017-11-14T02:02:31.633Z,2.01
2017-11-14T02:04:59.278Z,1.97
2017-11-14T02:07:26.825Z,2.08
2017-11-14T02:09:54.395Z,2.10
2017-11-14T02:12:22.021Z,2.03
2017-11-14T02:14:49.583Z,2.03
2017-11-14T02:17:17.098Z,2.03
2017-11-14T02:19:44.655Z,2.04
2017-11-14T02:22:12.205Z,2.04
2017-11-14T02:24:39.795Z,2.05
2017-11-14T02:27:11.083Z,2.08
2017-11-14T02:29:38.625Z,2.09
2017-11-14T02:32:06.650Z,2.20
2017-11-14T02:34:34.161Z,2.28
2017-11-14T02:37:01.711Z,2.32
2017-11-14T02:39:29.334Z,2.29
2017-11-14T02:41:56.893Z,2.28
2017-11-14T02:44:24.435Z,2.26
2017-11-14T02:46:52.020Z,2.31
2017-11-14T02:49:19.573Z,2.31
2017-11-14T02:51:47.126Z,2.29
2017-11-14T02:54:14.881Z,2.33
2017-11-14T02:56:42.393Z,2.38
2017-11-14T02:59:09.905Z,2.42
2017-11-14T03:01:37.474Z,2.34
2017-11-14T03:04:05.027Z,2.28
2017-11-14T03:06:32.543Z,2.30
2017-11-14T03:09:00.123Z,2.35
2017-11-14T03:11:27.661Z,2.30
2017-11-14T03:13:55.197Z,2.33
2017-11-14T03:16:23.183Z,2.34
2017-11-14T03:18:50.707Z,2.36
2017-11-14T03:21:18.234Z,2.35
2017-11-14T03:23:45.816Z,2.37
2017-11-14T03:26:13.344Z,2.46
2017-11-14T03:28:40.899Z,2.44
2017-11-14T03:31:08.479Z,2.49
2017-11-14T03:33:36.002Z,2.59
2017-11-14T03:36:03.582Z,2.55
2017-11-14T03:38:31.146Z,2.63
2017-11-14T03:40:58.682Z,2.62
2017-11-14T03:43:26.254Z,2.59
2017-11-14T03:45:53.777Z,2.57
2017-11-14T03:48:21.299Z,2.55
2017-11-14T03:50:48.850Z,2.57
2017-11-14T03:53:16.381Z,2.43
2017-11-14T03:55:44.030Z,2.43
2017-11-14T03:58:11.571Z,2.35
2017-11-14T04:00:39.110Z,2.35
2017-11-14T04:03:07.060Z,2.29
2017-11-14T04:05:34.590Z,2.21
2017-11-14T04:08:02.118Z,2.24
2017-11-14T04:10:30.098Z,2.23
2017-11-14T04:12:57.618Z,2.21
2017-11-14T04:15:25.129Z,2.18
2017-11-14T04:17:53.008Z,2.22
2017-11-14T04:20:20.534Z,2.24
2017-11-14T04:22:48.049Z,2.15
2017-11-14T04:25:15.700Z,2.16
2017-11-14T04:27:43.217Z,2.17
2017-11-14T04:30:10.733Z,2.27
2017-11-14T04:32:38.450Z,2.34
2017-11-14T04:35:06.015Z,2.37
2017-11-14T04:37:33.538Z,2.43
2017-11-14T04:40:01.128Z,2.54
2017-11-14T04:42:28.651Z,2.59
2017-11-14T04:44:56.186Z,2.60
2017-11-14T04:47:24.092Z,2.66
2017-11-14T04:49:51.618Z,2.74
2017-11-14T04:52:19.143Z,2.71
2017-11-14T04:54:46.789Z,2.78
2017-11-14T04:57:14.474Z,2.79
2017-11-14T04:59:42.012Z,2.78
2017-11-14T05:02:09.943Z,2.88
2017-11-14T05:04:37.470Z,3.08
2017-11-14T05:07:05.003Z,3.08
2017-11-14T05:09:32.630Z,3.03
2017-11-14T05:12:00.161Z,3.04
2017-11-14T05:14:27.678Z,3.06
2017-11-14T05:16:55.243Z,3.06
2017-11-14T05:19:22.761Z,3.16
2017-11-14T05:21:50.277Z,3.21
2017-11-14T05:24:17.838Z,3.37
2017-11-14T05:26:45.357Z,3.29
2017-11-14T05:29:12.997Z,3.30
2017-11-14T05:31:40.513Z,3.37
2017-11-14T05:34:08.034Z,3.39
2017-11-14T05:36:35.769Z,3.26
2017-11-14T05:39:03.311Z,3.32
2017-11-14T05:41:30.824Z,3.38
2017-11-14T05:43:58.587Z,3.37
2017-11-14T05:46:26.102Z,3.45
2017-11-14T05:48:54.083Z,3.47
2017-11-14T05:51:21.746Z,3.41
2017-11-14T05:53:49.840Z,3.46
2017-11-14T05:56:17.383Z,3.53
2017-11-14T05:58:45.463Z,3.43
2017-11-14T06:01:13.064Z,3.55
2017-11-14T06:03:40.916Z,3.56
2017-11-14T06:06:08.493Z,3.51
2017-11-14T06:08:36.266Z,3.52
2017-11-14T06:11:03.773Z,3.78
2017-11-14T06:13:31.298Z,3.67
2017-11-14T06:15:58.974Z,3.86
2017-11-14T06:18:26.497Z,3.87
2017-11-14T06:20:54.023Z,3.86
2017-11-14T06:23:22.051Z,3.90
2017-11-14T06:25:49.619Z,3.87
2017-11-14T06:28:17.143Z,3.80
2017-11-14T06:30:44.957Z,3.87
2017-11-14T06:33:12.480Z,3.79
2017-11-14T06:35:39.995Z,3.91
2017-11-14T06:38:08.624Z,3.94
2017-11-14T06:40:36.221Z,4.03
2017-11-14T06:43:03.775Z,4.01
2017-11-14T06:45:31.417Z,4.03
2017-11-14T06:47:58.966Z,4.18
2017-11-14T06:50:26.490Z,4.07
2017-11-14T06:52:54.025Z,4.28
2017-11-14T06:55:21.790Z,4.22
2017-11-14T06:57:49.307Z,4.32
2017-11-14T07:00:16.880Z,4.09
2017-11-14T07:02:44.422Z,4.10
2017-11-14T07:05:11.992Z,4.06
2017-11-14T07:07:39.926Z,4.09
2017-11-14T07:10:07.468Z,3.96
2017-11-14T07:12:34.997Z,3.80
2017-11-14T07:15:02.519Z,3.87
2017-11-14T07:17:30.441Z,3.96
2017-11-14T07:19:58.825Z,3.96
2017-11-14T07:22:26.380Z,4.10
2017-11-14T07:24:53.967Z,4.10
2017-11-14T07:27:21.482Z,4.15
2017-11-14T07:29:49.020Z,4.28
2017-11-14T07:32:16.582Z,4.23
2017-11-14T07:34:44.112Z,4.35
2017-11-14T07:37:11.691Z,4.37
2017-11-14T07:39:39.226Z,4.43
2017-11-14T07:42:06.745Z,4.47
2017-11-14T07:44:34.479Z,4.36
2017-11-14T07:47:02.002Z,4.44
2017-11-14T07:49:29.536Z,4.44
2017-11-14T07:51:57.085Z,4.39
2017-11-14T07:54:24.611Z,4.54
2017-11-14T07:56:52.561Z,4.69
2017-11-14T07:59:20.082Z,4.74
2017-11-14T08:01:47.775Z,4.87
2017-11-14T08:04:15.470Z,4.84
2017-11-14T08:06:43.007Z,5.12
2017-11-14T08:09:10.537Z,5.07
2017-11-14T08:11:38.501Z,5.27
2017-11-14T08:14:06.038Z,5.21
2017-11-14T08:16:33.565Z,5.17
2017-11-14T08:19:01.327Z,5.11
2017-11-14T08:21:28.847Z,5.35
2017-11-14T08:23:56.367Z,5.53
2017-11-14T08:26:23.935Z,5.28
2017-11-14T08:28:51.456Z,5.84
2017-11-14T08:31:19.008Z,5.74
2017-11-14T08:33:46.645Z,5.85
2017-11-14T08:36:14.158Z,5.89
2017-11-14T08:38:41.660Z,5.82
2017-11-14T08:41:09.250Z,6.23
2017-11-14T08:43:36.817Z,5.96
2017-11-14T08:46:04.336Z,6.04
2017-11-14T08:48:31.917Z,6.00
2017-11-14T08:50:59.913Z,6.07
2017-11-14T08:53:28.097Z,6.10
2017-11-14T08:55:55.704Z,5.99
2017-11-14T08:58:23.222Z,6.19
2017-11-14T09:00:50.749Z,6.32
2017-11-14T09:03:18.320Z,6.34
2017-11-14T09:05:45.841Z,6.23
2017-11-14T09:08:13.361Z,6.42
2017-11-14T09:10:41.022Z,6.55
2017-11-14T09:13:08.933Z,6.64
2017-11-14T09:15:37.448Z,6.58
2017-11-14T09:18:05.186Z,6.71
2017-11-14T09:20:32.721Z,6.64
2017-11-14T09:23:00.255Z,6.59
2017-11-14T09:25:27.804Z,6.84
2017-11-14T09:27:55.326Z,6.90
2017-11-14T09:30:22.890Z,6.90
2017-11-14T09:32:50.426Z,6.78
2017-11-14T09:35:18.134Z,6.91
2017-11-14T09:37:45.670Z,6.97
2017-11-14T09:40:13.212Z,6.56
2017-11-14T09:42:40.783Z,6.93
2017-11-14T09:45:08.316Z,6.76
2017-11-14T09:47:35.885Z,6.98
2017-11-14T09:50:03.664Z,7.10
2017-11-14T09:52:31.662Z,6.77
2017-11-14T09:54:59.197Z,6.88
2017-11-14T09:57:27.269Z,6.84
2017-11-14T09:59:54.992Z,6.79
2017-11-14T10:02:22.649Z,6.72
2017-11-14T10:04:50.326Z,7.12
2017-11-14T10:07:18.011Z,7.20
2017-11-14T10:09:45.550Z,7.37
2017-11-14T10:12:13.596Z,7.11
2017-11-14T10:14:41.662Z,7.27
2017-11-14T10:17:09.215Z,7.24
2017-11-14T10:19:36.741Z,7.62
2017-11-14T10:22:04.936Z,7.46
2017-11-14T10:24:32.491Z,7.48
2017-11-14T10:27:00.033Z,7.37
2017-11-14T10:29:28.364Z,7.66
2017-11-14T10:31:55.946Z,7.47
2017-11-14T10:34:23.970Z,7.64
2017-11-14T10:36:51.865Z,7.65
2017-11-14T10:39:19.425Z,8.01
2017-11-14T10:41:46.959Z,7.50
2017-11-14T10:44:14.553Z,7.58
2017-11-14T10:46:42.078Z,7.65
2017-11-14T10:49:09.628Z,7.72
2017-11-14T10:51:37.398Z,7.80
2017-11-14T10:54:04.942Z,7.50
2017-11-14T10:56:32.846Z,7.69
2017-11-14T10:59:00.526Z,7.64
2017-11-14T11:01:28.067Z,8.18
2017-11-14T11:03:56.333Z,8.25
2017-11-14T11:06:23.977Z,8.10
2017-11-14T11:08:51.519Z,8.33
2017-11-14T11:11:19.062Z,8.23
2017-11-14T11:13:46.777Z,7.75
2017-11-14T11:16:14.343Z,8.07
2017-11-14T11:18:41.882Z,7.78
2017-11-14T11:21:09.471Z,8.33
2017-11-14T11:23:37.003Z,8.06
2017-11-14T11:26:05.609Z,7.90
2017-11-14T11:28:33.549Z,7.97
2017-11-14T11:31:01.550Z,7.65
2017-11-14T11:33:30.179Z,7.81
2017-11-14T11:35:57.772Z,7.99
2017-11-14T11:38:25.298Z,8.04
2017-11-14T11:40:52.953Z,8.12
2017-11-14T11:43:20.626Z,8.33
2017-11-14T11:45:48.197Z,8.22
2017-11-14T11:48:15.743Z,8.27
2017-11-14T11:50:43.338Z,7.97
2017-11-14T11:53:10.870Z,8.28
2017-11-14T11:55:38.404Z,8.15
2017-11-14T11:58:06.388Z,8.29
2017-11-14T12:00:33.949Z,8.00
2017-11-14T12:03:02.014Z,8.15
2017-11-14T12:05:29.578Z,7.91
2017-11-14T12:07:57.113Z,8.39
2017-11-14T12:10:26.218Z,7.95
2017-11-14T12:12:53.834Z,7.80
2017-11-14T12:15:21.368Z,7.94
2017-11-14T12:17:49.109Z,7.74
2017-11-14T12:20:16.647Z,7.92
2017-11-14T12:22:45.121Z,7.93
2017-11-14T12:25:13.062Z,7.81
2017-11-14T12:27:41.041Z,7.99
2017-11-14T12:30:10.115Z,7.70
2017-11-14T12:32:38.308Z,8.07
2017-11-14T12:35:06.396Z,7.89
2017-11-14T12:37:33.935Z,7.74
2017-11-14T12:40:01.482Z,7.76
2017-11-14T12:42:29.460Z,7.73
2017-11-14T12:44:56.986Z,7.91
2017-11-14T12:47:25.646Z,7.63
2017-11-14T12:49:53.392Z,7.60
2017-11-14T12:52:20.904Z,7.63
2017-11-14T12:54:48.429Z,7.93
2017-11-14T12:57:16.430Z,7.79
2017-11-14T12:59:44.578Z,7.85
2017-11-14T13:02:12.140Z,7.49
2017-11-14T13:04:40.419Z,7.82
2017-11-14T13:07:08.363Z,7.53
2017-11-14T13:09:35.966Z,7.45
2017-11-14T13:12:03.914Z,7.72
2017-11-14T13:14:32.059Z,7.44
2017-11-14T13:16:59.641Z,7.47
2017-11-14T13:19:27.981Z,7.58
2017-11-14T13:21:55.545Z,7.83
2017-11-14T13:24:23.101Z,7.74
2017-11-14T13:26:51.429Z,7.57
2017-11-14T13:29:19.486Z,7.74
2017-11-14T13:31:47.035Z,7.73
2017-11-14T13:34:14.565Z,7.68
2017-11-14T13:36:42.102Z,7.37
2017-11-14T13:39:10.163Z,7.79
2017-11-14T13:41:37.971Z,7.41
2017-11-14T13:44:05.988Z,7.63
2017-11-14T13:46:33.597Z,7.66
2017-11-14T13:49:02.011Z,7.67
2017-11-14T13:51:29.526Z,7.84
2017-11-14T13:53:57.037Z,7.54
2017-11-14T13:56:24.942Z,7.75
2017-11-14T13:58:52.466Z,7.78
2017-11-14T14:01:20.027Z,7.67
2017-11-14T14:03:47.606Z,7.76
2017-11-14T14:06:15.131Z,7.81
2017-11-14T14:08:43.354Z,7.54
2017-11-14T14:11:11.498Z,7.39
2017-11-14T14:13:39.389Z,7.31
2017-11-14T14:16:07.308Z,7.34
2017-11-14T14:18:35.912Z,7.70
2017-11-14T14:21:03.464Z,7.55
2017-11-14T14:23:30.986Z,7.66
2017-11-14T14:25:59.595Z,7.54
2017-11-14T14:28:27.202Z,7.70
2017-11-14T14:30:54.729Z,7.25
2017-11-14T14:33:22.303Z,7.18
2017-11-14T14:35:49.821Z,7.22
2017-11-14T14:38:17.336Z,7.24
2017-11-14T14:40:45.004Z,7.13
2017-11-14T14:43:12.547Z,7.13
2017-11-14T14:45:40.083Z,7.13
2017-11-14T14:48:08.894Z,7.12
2017-11-14T14:50:36.461Z,7.10
2017-11-14T14:53:03.994Z,7.27
2017-11-14T14:55:31.573Z,7.29
2017-11-14T14:57:59.915Z,7.11
2017-11-14T15:00:27.436Z,7.10
2017-11-14T15:02:55.005Z,7.21
2017-11-14T15:05:22.533Z,7.10
2017-11-14T15:07:50.067Z,7.16
2017-11-14T15:10:18.064Z,7.12
2017-11-14T15:12:45.594Z,7.07
2017-11-14T15:15:13.214Z,7.10
2017-11-14T15:17:41.202Z,7.18
2017-11-14T15:20:08.729Z,7.24
2017-11-14T15:22:36.254Z,7.05
2017-11-14T15:25:04.746Z,7.13
2017-11-14T15:27:32.914Z,7.14
2017-11-14T15:30:01.539Z,7.26
2017-11-14T15:32:29.166Z,7.11
2017-11-14T15:34:56.689Z,7.16
2017-11-14T15:37:24.215Z,7.18
2017-11-14T15:39:51.752Z,7.07
2017-11-14T15:42:19.293Z,7.30
2017-11-14T15:44:47.185Z,7.30
2017-11-14T15:47:14.701Z,7.39
2017-11-14T15:49:42.218Z,7.48
2017-11-14T15:52:10.149Z,7.24
2017-11-14T15:54:38.410Z,7.28
2017-11-14T15:57:07.121Z,7.50
2017-11-14T15:59:34.672Z,7.33
2017-11-14T16:02:02.196Z,7.15
2017-11-14T16:04:30.110Z,7.34
2017-11-14T16:06:57.629Z,7.38
2017-11-14T16:09:25.190Z,7.35
2017-11-14T16:11:52.965Z,7.28
2017-11-14T16:14:20.485Z,7.45
2017-11-14T16:16:48.016Z,7.24
2017-11-14T16:19:15.643Z,7.37
2017-11-14T16:21:43.205Z,7.37
2017-11-14T16:24:10.739Z,7.26
2017-11-14T16:26:38.326Z,7.36
2017-11-14T16:29:05.871Z,7.29
2017-11-14T16:31:33.426Z,7.27
2017-11-14T16:34:00.955Z,7.38
2017-11-14T16:36:28.557Z,7.27
2017-11-14T16:38:56.100Z,7.37
2017-11-14T16:41:23.634Z,7.34
2017-11-14T16:43:51.681Z,7.37
2017-11-14T16:46:19.215Z,7.59
2017-11-14T16:48:46.745Z,7.34
2017-11-14T16:51:14.712Z,7.26
2017-11-14T16:53:42.251Z,7.41
2017-11-14T16:56:09.830Z,7.27
2017-11-14T16:58:37.511Z,7.29
2017-11-14T17:01:05.059Z,7.30
2017-11-14T17:03:32.594Z,7.47
2017-11-14T17:06:00.142Z,7.45
2017-11-14T17:08:27.694Z,7.54
2017-11-14T17:10:55.321Z,7.44
2017-11-14T17:13:22.987Z,7.66
2017-11-14T17:15:50.642Z,7.48
2017-11-14T17:18:18.243Z,7.45
2017-11-14T17:20:45.789Z,7.50
2017-11-14T17:23:13.328Z,7.40
2017-11-14T17:25:41.041Z,7.37
2017-11-14T17:28:08.566Z,7.50
2017-11-14T17:30:36.105Z,7.43
2017-11-14T17:33:03.875Z,7.43
2017-11-14T17:35:31.423Z,7.47
2017-11-14T17:37:58.946Z,7.47
2017-11-14T17:40:26.589Z,7.57
2017-11-14T17:42:54.579Z,7.31
2017-11-14T17:45:22.096Z,7.37
2017-11-14T17:47:49.623Z,7.56
2017-11-14T17:50:17.396Z,7.59
2017-11-14T17:52:44.913Z,7.50
2017-11-14T17:55:12.446Z,7.45
2017-11-14T17:57:40.007Z,7.41
2017-11-14T18:00:07.533Z,7.50
2017-11-14T18:02:35.100Z,7.43
2017-11-14T18:05:02.629Z,7.60
2017-11-14T18:07:30.150Z,7.49
2017-11-14T18:09:57.704Z,7.56
2017-11-14T18:12:25.290Z,7.44
2017-11-14T18:14:52.810Z,7.57
2017-11-14T18:17:20.338Z,7.72
2017-11-14T18:19:48.056Z,7.58
2017-11-14T18:22:15.578Z,7.48
2017-11-14T18:24:43.101Z,7.58
2017-11-14T18:27:10.783Z,7.60
2017-11-14T18:29:38.306Z,7.60
2017-11-14T18:32:05.845Z,7.63
2017-11-14T18:34:33.588Z,7.62
2017-11-14T18:37:01.245Z,7.54
2017-11-14T18:39:28.782Z,7.70
2017-11-14T18:41:56.537Z,7.71
2017-11-14T18:44:24.104Z,7.78
2017-11-14T18:46:51.653Z,7.72
2017-11-14T18:49:19.520Z,7.83
2017-11-14T18:51:47.037Z,7.79
2017-11-14T18:54:14.579Z,7.73
2017-11-14T18:56:42.283Z,7.81
2017-11-14T18:59:09.822Z,7.74
2017-11-14T19:01:37.350Z,7.80
2017-11-14T19:04:04.893Z,7.72
2017-11-14T19:06:32.441Z,7.67
2017-11-14T19:09:00.147Z,7.72
2017-11-14T19:11:27.675Z,7.57
2017-11-14T19:13:55.211Z,7.61
2017-11-14T19:16:23.270Z,7.59
2017-11-14T19:18:50.801Z,7.67
2017-11-14T19:21:18.389Z,7.73
2017-11-14T19:23:46.286Z,7.71
2017-11-14T19:26:13.824Z,7.59
2017-11-14T19:28:41.350Z,7.64
2017-11-14T19:31:09.109Z,7.64
2017-11-14T19:33:36.635Z,7.80
2017-11-14T19:36:04.161Z,7.67
2017-11-14T19:38:31.712Z,7.67
2017-11-14T19:40:59.236Z,7.60
2017-11-14T19:43:27.002Z,7.70
2017-11-14T19:45:54.539Z,7.79
2017-11-14T19:48:22.059Z,7.80
2017-11-14T19:50:49.642Z,7.75
2017-11-14T19:53:17.174Z,7.82
2017-11-14T19:55:44.698Z,7.68
2017-11-14T19:58:12.420Z,7.76
2017-11-14T20:00:39.942Z,7.83
2017-11-14T20:03:07.465Z,7.81
2017-11-14T20:05:35.232Z,7.73
2017-11-14T20:08:02.745Z,7.82
2017-11-14T20:10:30.273Z,7.78
2017-11-14T20:12:57.893Z,7.81
2017-11-14T20:15:25.404Z,7.89
2017-11-14T20:17:52.924Z,7.82
2017-11-14T20:20:20.532Z,7.86
2017-11-14T20:22:48.195Z,7.70
2017-11-14T20:25:15.744Z,7.87
2017-11-14T20:27:43.294Z,7.93
2017-11-14T20:30:11.272Z,7.83
2017-11-14T20:32:38.798Z,7.85
2017-11-14T20:35:06.354Z,7.85
2017-11-14T20:37:33.942Z,7.68
2017-11-14T20:40:01.460Z,7.91
2017-11-14T20:42:29.034Z,7.88
2017-11-14T20:44:56.716Z,7.98
2017-11-14T20:47:24.242Z,7.94
2017-11-14T20:49:51.760Z,7.82
2017-11-14T20:52:19.347Z,7.90
2017-11-14T20:54:46.880Z,7.78
2017-11-14T20:57:14.409Z,7.83
2017-11-14T20:59:42.073Z,7.89
2017-11-14T21:02:09.603Z,7.91
2017-11-14T21:04:37.162Z,7.74
2017-11-14T21:07:04.795Z,7.74
2017-11-14T21:09:32.328Z,7.86
2017-11-14T21:11:59.854Z,7.85
2017-11-14T21:14:27.598Z,8.01
2017-11-14T21:16:55.130Z,7.85
2017-11-14T21:19:22.640Z,7.91
2017-11-14T21:21:50.285Z,7.95
2017-11-14T21:24:17.845Z,8.03
2017-11-14T21:26:45.374Z,7.99
2017-11-14T21:29:13.447Z,7.98
2017-11-14T21:31:40.981Z,7.90
2017-11-14T21:34:08.502Z,7.92
2017-11-14T21:36:36.063Z,7.99
2017-11-14T21:39:03.690Z,8.09
2017-11-14T21:41:31.220Z,8.08
2017-11-14T21:43:58.760Z,7.99
2017-11-14T21:46:26.344Z,8.03
2017-11-14T21:48:53.931Z,7.94
2017-11-14T21:51:21.474Z,8.08
2017-11-14T21:53:49.197Z,7.89
2017-11-14T21:56:16.716Z,7.90
2017-11-14T21:58:44.237Z,8.00
2017-11-14T22:01:11.836Z,7.99
2017-11-14T22:03:39.373Z,8.02
2017-11-14T22:06:06.906Z,8.03
2017-11-14T22:08:34.513Z,8.03
2017-11-14T22:11:02.047Z,8.10
2017-11-14T22:13:29.569Z,8.20
2017-11-14T22:15:57.110Z,8.30
2017-11-14T22:18:24.644Z,8.06
2017-11-14T22:20:52.608Z,8.12
2017-11-14T22:23:20.138Z,8.25
2017-11-14T22:25:47.682Z,8.14
2017-11-14T22:28:15.260Z,8.01
2017-11-14T22:30:42.780Z,8.07
2017-11-14T22:33:10.306Z,8.03
2017-11-14T22:35:37.889Z,8.06
2017-11-14T22:38:05.419Z,8.26
2017-11-14T22:40:32.952Z,8.16
2017-11-14T22:43:00.512Z,8.09
2017-11-14T22:45:28.054Z,8.15
2017-11-14T22:47:55.924Z,8.19
2017-11-14T22:50:23.447Z,8.08
2017-11-14T22:52:51.015Z,8.11
2017-11-14T22:55:18.675Z,8.20
2017-11-14T22:57:46.203Z,8.16
2017-11-14T23:00:25.661Z,8.18
2017-11-14T23:02:53.193Z,8.22
2017-11-14T23:05:20.724Z,8.15
2017-11-14T23:07:48.333Z,8.25
2017-11-14T23:10:15.886Z,8.34
2017-11-14T23:12:44.205Z,8.24
2017-11-14T23:15:11.906Z,8.25
2017-11-14T23:17:39.461Z,8.29
2017-11-14T23:20:07.017Z,8.22
2017-11-14T23:22:34.925Z,8.26
2017-11-14T23:25:02.467Z,8.33
2017-11-14T23:27:29.997Z,8.37
2017-11-14T23:29:57.588Z,8.26
2017-11-14T23:32:25.135Z,8.36
2017-11-14T23:34:52.678Z,8.20
2017-11-14T23:37:20.756Z,8.18
2017-11-14T23:39:48.283Z,8.23
2017-11-14T23:42:15.849Z,8.13
2017-11-14T23:44:43.450Z,8.27
2017-11-14T23:47:11.004Z,8.21
2017-11-14T23:49:38.928Z,8.29
2017-11-14T23:52:06.492Z,8.34
2017-11-14T23:54:34.022Z,8.30
2017-11-14T23:57:01.614Z,8.39
2017-11-14T23:59:29.159Z,8.38
